Millenium Air

Millenium Air Since 1998



 METAR AND TAF INFORMATION
METAR FOR EBCI
ADDS - METARS form results

(0439 UTC 25 February 2021)
Data provider http://aviationweather.gov/metar/data/
 
METAR text: EBCI 250420Z 18006KT CAVOK 10/06 Q1026 NOSIG
Conditions at: EBCI (CHARLEROI/GOSSEL, BE) observed 0420 UTC 25 February 2021
Temperature: 10.0°C (50°F)
Dewpoint: 6.0°C (43°F) [RH = 76%]
Pressure (altimeter): 30.30 inches Hg (1026.0 mb)
Winds: from the S (180 degrees) at 7 MPH (6 knots; 3.1 m/s)
Visibility: 6 or more miles (10+ km)
Ceiling: ceiling and visibility are OK
Clouds: unknown
Weather: no significant weather observed at this time

METAR text: EBCI 250350Z 17005KT CAVOK 10/06 Q1026 NOSIG
Conditions at: EBCI (CHARLEROI/GOSSEL, BE) observed 0350 UTC 25 February 2021
Temperature: 10.0°C (50°F)
Dewpoint: 6.0°C (43°F) [RH = 76%]
Pressure (altimeter): 30.30 inches Hg (1026.0 mb)
Winds: from the S (170 degrees) at 6 MPH (5 knots; 2.6 m/s)
Visibility: 6 or more miles (10+ km)
Ceiling: ceiling and visibility are OK
Clouds: unknown
Weather: no significant weather observed at this time

Forecast for: EBCI (CHARLEROI/GOSSEL, BE)
Text: TAF EBCI 242310Z 2500/2606 19007KT CAVOK
Forecast period: 0000 UTC 25 February 2021 to 0600 UTC 26 February 2021
Forecast type: FROM: standard forecast or significant change
Winds: from the S (190 degrees) at 8 MPH (7 knots; 3.6 m/s)
Visibility: 6 or more miles (10+ km)
Ceiling: unknown
Clouds: missing
Weather: NSW  (no significant weather)
Text: PROB40
Forecast period: 1700 UTC 25 February 2021 to 0200 UTC 26 February 2021
Forecast type: TEMPORARY: The following changes expected for less than half the time period
Visibility: 1.86 miles (2.99 km)
Ceiling: 700 feet AGL
Clouds: broken clouds at 700 feet AGL
Weather: RA SHRA  (moderate rain, rain showers)
Text: TEMPO 2517/2602 3000 RA SHRA BKN007
Forecast period: 0200 to 0600 UTC 26 February 2021
Forecast type: TEMPORARY: The following changes expected for less than half the time period
Visibility: missing
Ceiling: 700 feet AGL
Clouds: broken clouds at 700 feet AGL
Weather: no significant weather forecast for this period

 AIRPORT MAP

 RUNWAY INFORMATION
Runway 07 Runway length 8366 ft Runway width 148 ft
Runway elevation 611 ft Runway displaced threshold 1477 ft Runway heading 66
Runway 25 Runway length 8366 ft Runway width 148 ft
Runway elevation 583 ft Runway displaced threshold 0 ft Runway heading 246

 AIRPORT FREQUENCIES
Type APP Name CHARLEROI Frequency 133.125 MHZ
Type ATIS Name ATIS Frequency 134.625 MHZ
Type GND Name CHARLEROI Frequency 121.8 MHZ
Type TWR Name CHARLEROI Frequency 121.3 MHZ

 AIRPORT NEAR NAVIGATION AIDS
Type VOR-DME Name Gosly Frequency 115700 KHZ
Type NDB Name Charleroi Frequency 323 KHZ